sensor_id;sensor_type;location;lat;lon;timestamp;P1;P2;P0
60816;PMS5003;51921;51.518;-3.188;2023-07-24T00:01:50;5;4;
60816;PMS5003;51921;51.518;-3.188;2023-07-24T00:04:16;5;4;
60816;PMS5003;51921;51.518;-3.188;2023-07-24T00:06:41;6;6;
60816;PMS5003;51921;51.518;-3.188;2023-07-24T00:09:07;3;2;
60816;PMS5003;51921;51.518;-3.188;2023-07-24T00:11:32;4;4;
60816;PMS5003;51921;51.518;-3.188;2023-07-24T00:13:57;4;4;
60816;PMS5003;51921;51.518;-3.188;2023-07-24T00:16:23;4;4;
60816;PMS5003;51921;51.518;-3.188;2023-07-24T00:18:48;4;4;
60816;PMS5003;51921;51.518;-3.188;2023-07-24T00:21:13;3;3;
60816;PMS5003;51921;51.518;-3.188;2023-07-24T00:23:39;5;5;
60816;PMS5003;51921;51.518;-3.188;2023-07-24T00:26:04;6;5;
60816;PMS5003;51921;51.518;-3.188;2023-07-24T00:28:29;4;4;
60816;PMS5003;51921;51.518;-3.188;2023-07-24T00:30:55;5;5;
60816;PMS5003;51921;51.518;-3.188;2023-07-24T00:33:20;4;4;
60816;PMS5003;51921;51.518;-3.188;2023-07-24T00:35:45;4;4;
60816;PMS5003;51921;51.518;-3.188;2023-07-24T00:38:11;6;4;
60816;PMS5003;51921;51.518;-3.188;2023-07-24T00:40:36;6;6;
60816;PMS5003;51921;51.518;-3.188;2023-07-24T00:43:01;4;4;
60816;PMS5003;51921;51.518;-3.188;2023-07-24T00:45:27;4;4;
60816;PMS5003;51921;51.518;-3.188;2023-07-24T00:47:52;6;5;
60816;PMS5003;51921;51.518;-3.188;2023-07-24T00:50:18;6;6;
60816;PMS5003;51921;51.518;-3.188;2023-07-24T00:52:43;3;3;
60816;PMS5003;51921;51.518;-3.188;2023-07-24T00:55:09;5;4;
60816;PMS5003;51921;51.518;-3.188;2023-07-24T00:57:33;3;3;
60816;PMS5003;51921;51.518;-3.188;2023-07-24T00:59:59;6;5;
60816;PMS5003;51921;51.518;-3.188;2023-07-24T01:02:24;4;4;
60816;PMS5003;51921;51.518;-3.188;2023-07-24T01:04:49;4;4;
60816;PMS5003;51921;51.518;-3.188;2023-07-24T01:07:14;4;4;
60816;PMS5003;51921;51.518;-3.188;2023-07-24T01:09:40;3;3;
60816;PMS5003;51921;51.518;-3.188;2023-07-24T01:12:07;6;6;
60816;PMS5003;51921;51.518;-3.188;2023-07-24T01:14:32;5;5;
60816;PMS5003;51921;51.518;-3.188;2023-07-24T01:16:56;5;5;
60816;PMS5003;51921;51.518;-3.188;2023-07-24T01:19:36;7;7;
60816;PMS5003;51921;51.518;-3.188;2023-07-24T01:22:02;6;6;
60816;PMS5003;51921;51.518;-3.188;2023-07-24T01:24:14;6;6;
60816;PMS5003;51921;51.518;-3.188;2023-07-24T01:26:37;6;6;
60816;PMS5003;51921;51.518;-3.188;2023-07-24T01:29:02;5;4;
60816;PMS5003;51921;51.518;-3.188;2023-07-24T01:31:28;5;5;
60816;PMS5003;51921;51.518;-3.188;2023-07-24T01:33:53;5;5;
60816;PMS5003;51921;51.518;-3.188;2023-07-24T01:36:18;4;4;
60816;PMS5003;51921;51.518;-3.188;2023-07-24T01:38:44;8;7;
60816;PMS5003;51921;51.518;-3.188;2023-07-24T01:41:09;6;6;
60816;PMS5003;51921;51.518;-3.188;2023-07-24T01:43:34;4;3;
60816;PMS5003;51921;51.518;-3.188;2023-07-24T01:46:00;7;6;
60816;PMS5003;51921;51.518;-3.188;2023-07-24T01:48:25;5;5;
60816;PMS5003;51921;51.518;-3.188;2023-07-24T01:50:50;3;3;
60816;PMS5003;51921;51.518;-3.188;2023-07-24T01:53:16;7;7;
60816;PMS5003;51921;51.518;-3.188;2023-07-24T01:55:42;6;6;
60816;PMS5003;51921;51.518;-3.188;2023-07-24T01:58:07;6;5;
60816;PMS5003;51921;51.518;-3.188;2023-07-24T02:00:32;4;4;
60816;PMS5003;51921;51.518;-3.188;2023-07-24T02:02:58;4;4;
60816;PMS5003;51921;51.518;-3.188;2023-07-24T02:05:23;7;5;
60816;PMS5003;51921;51.518;-3.188;2023-07-24T02:07:48;4;4;
60816;PMS5003;51921;51.518;-3.188;2023-07-24T02:10:14;6;6;
60816;PMS5003;51921;51.518;-3.188;2023-07-24T02:12:39;5;5;
60816;PMS5003;51921;51.518;-3.188;2023-07-24T02:15:05;5;5;
60816;PMS5003;51921;51.518;-3.188;2023-07-24T02:17:30;5;5;
60816;PMS5003;51921;51.518;-3.188;2023-07-24T02:19:55;5;5;
60816;PMS5003;51921;51.518;-3.188;2023-07-24T02:22:20;5;4;
60816;PMS5003;51921;51.518;-3.188;2023-07-24T02:24:46;6;6;
60816;PMS5003;51921;51.518;-3.188;2023-07-24T02:27:12;5;5;
60816;PMS5003;51921;51.518;-3.188;2023-07-24T02:29:36;4;4;
60816;PMS5003;51921;51.518;-3.188;2023-07-24T02:32:02;6;6;
60816;PMS5003;51921;51.518;-3.188;2023-07-24T02:34:27;6;6;
60816;PMS5003;51921;51.518;-3.188;2023-07-24T02:36:52;4;4;
60816;PMS5003;51921;51.518;-3.188;2023-07-24T02:39:18;5;5;
60816;PMS5003;51921;51.518;-3.188;2023-07-24T02:41:43;7;6;
60816;PMS5003;51921;51.518;-3.188;2023-07-24T02:44:08;7;6;
60816;PMS5003;51921;51.518;-3.188;2023-07-24T02:46:34;8;7;
60816;PMS5003;51921;51.518;-3.188;2023-07-24T02:48:59;6;6;
60816;PMS5003;51921;51.518;-3.188;2023-07-24T02:51:25;6;6;
60816;PMS5003;51921;51.518;-3.188;2023-07-24T02:53:50;5;5;
60816;PMS5003;51921;51.518;-3.188;2023-07-24T02:56:15;6;5;
60816;PMS5003;51921;51.518;-3.188;2023-07-24T02:58:41;6;6;
60816;PMS5003;51921;51.518;-3.188;2023-07-24T03:01:06;8;7;
60816;PMS5003;51921;51.518;-3.188;2023-07-24T03:03:31;7;7;
60816;PMS5003;51921;51.518;-3.188;2023-07-24T03:05:57;6;6;
60816;PMS5003;51921;51.518;-3.188;2023-07-24T03:08:22;5;5;
60816;PMS5003;51921;51.518;-3.188;2023-07-24T03:10:47;8;7;
60816;PMS5003;51921;51.518;-3.188;2023-07-24T03:13:13;7;7;
60816;PMS5003;51921;51.518;-3.188;2023-07-24T03:15:38;5;5;
60816;PMS5003;51921;51.518;-3.188;2023-07-24T03:18:03;4;3;
60816;PMS5003;51921;51.518;-3.188;2023-07-24T03:20:29;4;4;
60816;PMS5003;51921;51.518;-3.188;2023-07-24T03:22:54;5;5;
60816;PMS5003;51921;51.518;-3.188;2023-07-24T03:25:20;6;5;
60816;PMS5003;51921;51.518;-3.188;2023-07-24T03:27:45;4;4;
60816;PMS5003;51921;51.518;-3.188;2023-07-24T03:30:10;5;5;
60816;PMS5003;51921;51.518;-3.188;2023-07-24T03:32:36;4;4;
60816;PMS5003;51921;51.518;-3.188;2023-07-24T03:35:01;5;5;
60816;PMS5003;51921;51.518;-3.188;2023-07-24T03:37:26;6;5;
60816;PMS5003;51921;51.518;-3.188;2023-07-24T03:39:52;5;5;
60816;PMS5003;51921;51.518;-3.188;2023-07-24T03:44:42;6;6;
60816;PMS5003;51921;51.518;-3.188;2023-07-24T03:47:08;5;5;
60816;PMS5003;51921;51.518;-3.188;2023-07-24T03:49:33;5;5;
60816;PMS5003;51921;51.518;-3.188;2023-07-24T03:51:58;4;4;
60816;PMS5003;51921;51.518;-3.188;2023-07-24T03:54:24;5;5;
60816;PMS5003;51921;51.518;-3.188;2023-07-24T03:56:49;5;5;
60816;PMS5003;51921;51.518;-3.188;2023-07-24T03:59:14;5;5;
60816;PMS5003;51921;51.518;-3.188;2023-07-24T04:01:40;6;6;
60816;PMS5003;51921;51.518;-3.188;2023-07-24T04:04:05;6;5;
60816;PMS5003;51921;51.518;-3.188;2023-07-24T04:06:30;6;5;
60816;PMS5003;51921;51.518;-3.188;2023-07-24T04:08:56;6;6;
60816;PMS5003;51921;51.518;-3.188;2023-07-24T04:11:21;6;5;
60816;PMS5003;51921;51.518;-3.188;2023-07-24T04:13:46;7;6;
60816;PMS5003;51921;51.518;-3.188;2023-07-24T04:16:12;5;4;
60816;PMS5003;51921;51.518;-3.188;2023-07-24T04:18:37;4;4;
60816;PMS5003;51921;51.518;-3.188;2023-07-24T04:21:03;4;4;
60816;PMS5003;51921;51.518;-3.188;2023-07-24T04:23:28;5;5;
60816;PMS5003;51921;51.518;-3.188;2023-07-24T04:25:53;6;6;
60816;PMS5003;51921;51.518;-3.188;2023-07-24T04:28:19;6;6;
60816;PMS5003;51921;51.518;-3.188;2023-07-24T04:30:44;7;6;
60816;PMS5003;51921;51.518;-3.188;2023-07-24T04:33:09;5;5;
60816;PMS5003;51921;51.518;-3.188;2023-07-24T04:35:35;7;6;
60816;PMS5003;51921;51.518;-3.188;2023-07-24T04:38:00;6;6;
60816;PMS5003;51921;51.518;-3.188;2023-07-24T04:40:26;4;4;
60816;PMS5003;51921;51.518;-3.188;2023-07-24T04:42:51;7;7;
60816;PMS5003;51921;51.518;-3.188;2023-07-24T04:45:16;5;5;
60816;PMS5003;51921;51.518;-3.188;2023-07-24T04:47:42;5;5;
60816;PMS5003;51921;51.518;-3.188;2023-07-24T04:50:08;7;6;
60816;PMS5003;51921;51.518;-3.188;2023-07-24T04:52:33;9;6;
60816;PMS5003;51921;51.518;-3.188;2023-07-24T04:54:58;6;6;
60816;PMS5003;51921;51.518;-3.188;2023-07-24T04:57:23;4;4;
60816;PMS5003;51921;51.518;-3.188;2023-07-24T04:59:49;4;4;
60816;PMS5003;51921;51.518;-3.188;2023-07-24T05:02:14;4;4;
60816;PMS5003;51921;51.518;-3.188;2023-07-24T05:04:40;5;5;
60816;PMS5003;51921;51.518;-3.188;2023-07-24T05:07:05;5;5;
60816;PMS5003;51921;51.518;-3.188;2023-07-24T05:09:30;4;4;
60816;PMS5003;51921;51.518;-3.188;2023-07-24T05:11:56;4;3;
60816;PMS5003;51921;51.518;-3.188;2023-07-24T05:14:21;6;5;
60816;PMS5003;51921;51.518;-3.188;2023-07-24T05:16:47;6;6;
60816;PMS5003;51921;51.518;-3.188;2023-07-24T05:19:12;6;5;
60816;PMS5003;51921;51.518;-3.188;2023-07-24T05:21:37;5;4;
60816;PMS5003;51921;51.518;-3.188;2023-07-24T05:24:03;5;4;
60816;PMS5003;51921;51.518;-3.188;2023-07-24T05:26:28;5;4;
60816;PMS5003;51921;51.518;-3.188;2023-07-24T05:28:54;4;4;
60816;PMS5003;51921;51.518;-3.188;2023-07-24T05:31:19;0;0;
60816;PMS5003;51921;51.518;-3.188;2023-07-24T05:33:44;2;2;
60816;PMS5003;51921;51.518;-3.188;2023-07-24T05:36:10;0;0;
60816;PMS5003;51921;51.518;-3.188;2023-07-24T05:38:35;1;1;
60816;PMS5003;51921;51.518;-3.188;2023-07-24T05:41:02;0;0;
60816;PMS5003;51921;51.518;-3.188;2023-07-24T05:43:26;0;0;
60816;PMS5003;51921;51.518;-3.188;2023-07-24T05:45:52;0;0;
60816;PMS5003;51921;51.518;-3.188;2023-07-24T05:48:17;0;0;
60816;PMS5003;51921;51.518;-3.188;2023-07-24T05:50:42;0;0;
60816;PMS5003;51921;51.518;-3.188;2023-07-24T05:53:08;0;0;
60816;PMS5003;51921;51.518;-3.188;2023-07-24T05:55:33;0;0;
60816;PMS5003;51921;51.518;-3.188;2023-07-24T05:57:59;0;0;
60816;PMS5003;51921;51.518;-3.188;2023-07-24T06:00:24;0;0;
60816;PMS5003;51921;51.518;-3.188;2023-07-24T06:02:50;0;0;
60816;PMS5003;51921;51.518;-3.188;2023-07-24T06:05:15;0;0;
60816;PMS5003;51921;51.518;-3.188;2023-07-24T06:07:40;0;0;
60816;PMS5003;51921;51.518;-3.188;2023-07-24T06:10:06;0;0;
60816;PMS5003;51921;51.518;-3.188;2023-07-24T06:12:31;0;0;
60816;PMS5003;51921;51.518;-3.188;2023-07-24T06:14:57;0;0;
60816;PMS5003;51921;51.518;-3.188;2023-07-24T06:17:22;0;0;
60816;PMS5003;51921;51.518;-3.188;2023-07-24T06:19:48;0;0;
60816;PMS5003;51921;51.518;-3.188;2023-07-24T06:22:13;0;0;
60816;PMS5003;51921;51.518;-3.188;2023-07-24T06:24:39;0;0;
60816;PMS5003;51921;51.518;-3.188;2023-07-24T06:27:04;0;0;
60816;PMS5003;51921;51.518;-3.188;2023-07-24T06:29:29;0;0;
60816;PMS5003;51921;51.518;-3.188;2023-07-24T06:31:55;0;0;
60816;PMS5003;51921;51.518;-3.188;2023-07-24T06:34:20;0;0;
60816;PMS5003;51921;51.518;-3.188;2023-07-24T06:36:46;0;0;
60816;PMS5003;51921;51.518;-3.188;2023-07-24T06:39:11;0;0;
60816;PMS5003;51921;51.518;-3.188;2023-07-24T06:41:37;0;0;
60816;PMS5003;51921;51.518;-3.188;2023-07-24T06:44:02;0;0;
60816;PMS5003;51921;51.518;-3.188;2023-07-24T06:46:28;0;0;
60816;PMS5003;51921;51.518;-3.188;2023-07-24T06:48:53;0;0;
60816;PMS5003;51921;51.518;-3.188;2023-07-24T06:51:18;0;0;
60816;PMS5003;51921;51.518;-3.188;2023-07-24T06:53:44;0;0;
60816;PMS5003;51921;51.518;-3.188;2023-07-24T06:56:09;0;0;
60816;PMS5003;51921;51.518;-3.188;2023-07-24T06:58:35;0;0;
60816;PMS5003;51921;51.518;-3.188;2023-07-24T07:01:02;0;0;
60816;PMS5003;51921;51.518;-3.188;2023-07-24T07:03:26;0;0;
60816;PMS5003;51921;51.518;-3.188;2023-07-24T07:05:51;0;0;
60816;PMS5003;51921;51.518;-3.188;2023-07-24T07:08:17;0;0;
60816;PMS5003;51921;51.518;-3.188;2023-07-24T07:10:42;0;0;
60816;PMS5003;51921;51.518;-3.188;2023-07-24T07:13:08;0;0;
60816;PMS5003;51921;51.518;-3.188;2023-07-24T07:15:33;0;0;
60816;PMS5003;51921;51.518;-3.188;2023-07-24T07:17:58;0;0;
60816;PMS5003;51921;51.518;-3.188;2023-07-24T07:20:24;0;0;
60816;PMS5003;51921;51.518;-3.188;2023-07-24T07:22:49;0;0;
60816;PMS5003;51921;51.518;-3.188;2023-07-24T07:25:15;0;0;
60816;PMS5003;51921;51.518;-3.188;2023-07-24T07:27:40;0;0;
60816;PMS5003;51921;51.518;-3.188;2023-07-24T07:30:06;0;0;
60816;PMS5003;51921;51.518;-3.188;2023-07-24T07:32:31;0;0;
60816;PMS5003;51921;51.518;-3.188;2023-07-24T07:34:57;0;0;
60816;PMS5003;51921;51.518;-3.188;2023-07-24T07:37:22;0;0;
60816;PMS5003;51921;51.518;-3.188;2023-07-24T07:39:47;0;0;
60816;PMS5003;51921;51.518;-3.188;2023-07-24T07:42:13;0;0;
60816;PMS5003;51921;51.518;-3.188;2023-07-24T07:44:38;0;0;
60816;PMS5003;51921;51.518;-3.188;2023-07-24T07:47:04;0;0;
60816;PMS5003;51921;51.518;-3.188;2023-07-24T07:49:29;0;0;
60816;PMS5003;51921;51.518;-3.188;2023-07-24T07:51:55;0;0;
60816;PMS5003;51921;51.518;-3.188;2023-07-24T07:54:20;0;0;
60816;PMS5003;51921;51.518;-3.188;2023-07-24T07:56:46;0;0;
60816;PMS5003;51921;51.518;-3.188;2023-07-24T07:59:11;0;0;
60816;PMS5003;51921;51.518;-3.188;2023-07-24T08:01:36;0;0;
60816;PMS5003;51921;51.518;-3.188;2023-07-24T08:04:02;0;0;
60816;PMS5003;51921;51.518;-3.188;2023-07-24T08:06:27;0;0;
60816;PMS5003;51921;51.518;-3.188;2023-07-24T08:08:53;0;0;
60816;PMS5003;51921;51.518;-3.188;2023-07-24T08:11:18;0;0;
60816;PMS5003;51921;51.518;-3.188;2023-07-24T08:13:44;0;0;
60816;PMS5003;51921;51.518;-3.188;2023-07-24T08:16:12;0;0;
60816;PMS5003;51921;51.518;-3.188;2023-07-24T08:18:35;0;0;
60816;PMS5003;51921;51.518;-3.188;2023-07-24T08:21:00;0;0;
60816;PMS5003;51921;51.518;-3.188;2023-07-24T08:23:25;0;0;
60816;PMS5003;51921;51.518;-3.188;2023-07-24T08:25:51;0;0;
60816;PMS5003;51921;51.518;-3.188;2023-07-24T08:28:16;0;0;
60816;PMS5003;51921;51.518;-3.188;2023-07-24T08:30:42;0;0;
60816;PMS5003;51921;51.518;-3.188;2023-07-24T08:33:07;0;0;
60816;PMS5003;51921;51.518;-3.188;2023-07-24T08:35:33;1;1;
60816;PMS5003;51921;51.518;-3.188;2023-07-24T08:37:58;0;0;
60816;PMS5003;51921;51.518;-3.188;2023-07-24T08:40:23;0;0;
60816;PMS5003;51921;51.518;-3.188;2023-07-24T08:42:49;0;0;
60816;PMS5003;51921;51.518;-3.188;2023-07-24T08:45:14;0;0;
60816;PMS5003;51921;51.518;-3.188;2023-07-24T08:47:41;0;0;
60816;PMS5003;51921;51.518;-3.188;2023-07-24T08:50:06;0;0;
60816;PMS5003;51921;51.518;-3.188;2023-07-24T08:52:31;0;0;
60816;PMS5003;51921;51.518;-3.188;2023-07-24T08:54:56;0;0;
60816;PMS5003;51921;51.518;-3.188;2023-07-24T08:57:22;1;1;
60816;PMS5003;51921;51.518;-3.188;2023-07-24T08:59:47;0;0;
60816;PMS5003;51921;51.518;-3.188;2023-07-24T09:02:12;0;0;
60816;PMS5003;51921;51.518;-3.188;2023-07-24T09:04:38;0;0;
60816;PMS5003;51921;51.518;-3.188;2023-07-24T09:07:03;1;1;
60816;PMS5003;51921;51.518;-3.188;2023-07-24T09:09:29;0;0;
60816;PMS5003;51921;51.518;-3.188;2023-07-24T09:11:54;1;1;
60816;PMS5003;51921;51.518;-3.188;2023-07-24T09:14:20;1;1;
60816;PMS5003;51921;51.518;-3.188;2023-07-24T09:16:45;1;1;
60816;PMS5003;51921;51.518;-3.188;2023-07-24T09:21:36;2;2;
60816;PMS5003;51921;51.518;-3.188;2023-07-24T09:26:26;2;2;
60816;PMS5003;51921;51.518;-3.188;2023-07-24T09:28:52;2;2;
60816;PMS5003;51921;51.518;-3.188;2023-07-24T09:31:17;4;2;
60816;PMS5003;51921;51.518;-3.188;2023-07-24T09:33:42;4;3;
60816;PMS5003;51921;51.518;-3.188;2023-07-24T09:36:08;2;2;
60816;PMS5003;51921;51.518;-3.188;2023-07-24T09:38:34;3;3;
60816;PMS5003;51921;51.518;-3.188;2023-07-24T09:41:00;3;3;
60816;PMS5003;51921;51.518;-3.188;2023-07-24T09:43:25;2;2;
60816;PMS5003;51921;51.518;-3.188;2023-07-24T09:45:50;2;2;
60816;PMS5003;51921;51.518;-3.188;2023-07-24T09:48:16;2;2;
60816;PMS5003;51921;51.518;-3.188;2023-07-24T09:50:41;2;2;
60816;PMS5003;51921;51.518;-3.188;2023-07-24T09:53:06;3;2;
60816;PMS5003;51921;51.518;-3.188;2023-07-24T09:55:33;1;1;
60816;PMS5003;51921;51.518;-3.188;2023-07-24T09:57:58;1;1;
60816;PMS5003;51921;51.518;-3.188;2023-07-24T10:00:22;1;1;
60816;PMS5003;51921;51.518;-3.188;2023-07-24T10:02:48;2;2;
60816;PMS5003;51921;51.518;-3.188;2023-07-24T10:05:13;2;2;
60816;PMS5003;51921;51.518;-3.188;2023-07-24T10:07:39;0;0;
60816;PMS5003;51921;51.518;-3.188;2023-07-24T10:10:05;2;2;
60816;PMS5003;51921;51.518;-3.188;2023-07-24T10:12:30;3;3;
60816;PMS5003;51921;51.518;-3.188;2023-07-24T10:14:55;2;2;
60816;PMS5003;51921;51.518;-3.188;2023-07-24T10:19:46;2;1;
60816;PMS5003;51921;51.518;-3.188;2023-07-24T10:22:16;2;2;
60816;PMS5003;51921;51.518;-3.188;2023-07-24T10:24:37;2;2;
60816;PMS5003;51921;51.518;-3.188;2023-07-24T10:27:03;3;3;
60816;PMS5003;51921;51.518;-3.188;2023-07-24T10:29:28;3;3;
60816;PMS5003;51921;51.518;-3.188;2023-07-24T10:31:53;4;3;
60816;PMS5003;51921;51.518;-3.188;2023-07-24T10:34:18;2;2;
60816;PMS5003;51921;51.518;-3.188;2023-07-24T10:36:44;2;2;
60816;PMS5003;51921;51.518;-3.188;2023-07-24T10:39:13;4;2;
60816;PMS5003;51921;51.518;-3.188;2023-07-24T10:41:35;3;3;
60816;PMS5003;51921;51.518;-3.188;2023-07-24T10:44:00;4;4;
60816;PMS5003;51921;51.518;-3.188;2023-07-24T10:46:34;3;3;
60816;PMS5003;51921;51.518;-3.188;2023-07-24T10:48:51;3;2;
60816;PMS5003;51921;51.518;-3.188;2023-07-24T10:51:16;4;4;
60816;PMS5003;51921;51.518;-3.188;2023-07-24T10:53:44;3;3;
60816;PMS5003;51921;51.518;-3.188;2023-07-24T10:56:07;4;3;
60816;PMS5003;51921;51.518;-3.188;2023-07-24T10:58:33;3;3;
60816;PMS5003;51921;51.518;-3.188;2023-07-24T11:00:58;3;3;
60816;PMS5003;51921;51.518;-3.188;2023-07-24T11:03:24;3;3;
60816;PMS5003;51921;51.518;-3.188;2023-07-24T11:05:49;3;3;
60816;PMS5003;51921;51.518;-3.188;2023-07-24T11:08:15;2;2;
60816;PMS5003;51921;51.518;-3.188;2023-07-24T11:10:44;1;1;
60816;PMS5003;51921;51.518;-3.188;2023-07-24T11:13:09;4;3;
60816;PMS5003;51921;51.518;-3.188;2023-07-24T11:15:31;2;2;
60816;PMS5003;51921;51.518;-3.188;2023-07-24T11:17:56;2;2;
60816;PMS5003;51921;51.518;-3.188;2023-07-24T11:20:21;2;2;
60816;PMS5003;51921;51.518;-3.188;2023-07-24T11:22:47;3;2;
60816;PMS5003;51921;51.518;-3.188;2023-07-24T11:25:12;2;2;
60816;PMS5003;51921;51.518;-3.188;2023-07-24T11:27:38;4;4;
60816;PMS5003;51921;51.518;-3.188;2023-07-24T11:30:03;3;3;
60816;PMS5003;51921;51.518;-3.188;2023-07-24T11:32:28;2;2;
60816;PMS5003;51921;51.518;-3.188;2023-07-24T11:34:54;3;3;
60816;PMS5003;51921;51.518;-3.188;2023-07-24T11:37:19;3;2;
60816;PMS5003;51921;51.518;-3.188;2023-07-24T11:42:10;3;3;
60816;PMS5003;51921;51.518;-3.188;2023-07-24T11:44:36;2;2;
60816;PMS5003;51921;51.518;-3.188;2023-07-24T11:47:01;5;4;
60816;PMS5003;51921;51.518;-3.188;2023-07-24T11:49:27;3;3;
60816;PMS5003;51921;51.518;-3.188;2023-07-24T11:51:52;5;5;
60816;PMS5003;51921;51.518;-3.188;2023-07-24T11:54:17;3;3;
60816;PMS5003;51921;51.518;-3.188;2023-07-24T11:56:43;4;4;
60816;PMS5003;51921;51.518;-3.188;2023-07-24T11:59:10;2;2;
60816;PMS5003;51921;51.518;-3.188;2023-07-24T12:01:33;4;4;
60816;PMS5003;51921;51.518;-3.188;2023-07-24T12:03:59;4;4;
60816;PMS5003;51921;51.518;-3.188;2023-07-24T12:06:24;5;3;
60816;PMS5003;51921;51.518;-3.188;2023-07-24T12:08:50;3;3;
60816;PMS5003;51921;51.518;-3.188;2023-07-24T12:11:15;4;4;
60816;PMS5003;51921;51.518;-3.188;2023-07-24T12:13:41;4;4;
60816;PMS5003;51921;51.518;-3.188;2023-07-24T12:16:06;3;3;
60816;PMS5003;51921;51.518;-3.188;2023-07-24T12:18:31;4;4;
60816;PMS5003;51921;51.518;-3.188;2023-07-24T12:20:57;5;5;
60816;PMS5003;51921;51.518;-3.188;2023-07-24T12:23:22;5;5;
60816;PMS5003;51921;51.518;-3.188;2023-07-24T12:25:48;4;4;
60816;PMS5003;51921;51.518;-3.188;2023-07-24T12:28:13;4;4;
60816;PMS5003;51921;51.518;-3.188;2023-07-24T12:30:39;5;5;
60816;PMS5003;51921;51.518;-3.188;2023-07-24T12:33:04;5;5;
60816;PMS5003;51921;51.518;-3.188;2023-07-24T12:35:29;3;3;
60816;PMS5003;51921;51.518;-3.188;2023-07-24T12:37:55;5;5;
60816;PMS5003;51921;51.518;-3.188;2023-07-24T12:40:20;7;6;
60816;PMS5003;51921;51.518;-3.188;2023-07-24T12:42:46;6;6;
60816;PMS5003;51921;51.518;-3.188;2023-07-24T12:45:11;5;4;
60816;PMS5003;51921;51.518;-3.188;2023-07-24T12:47:36;5;5;
60816;PMS5003;51921;51.518;-3.188;2023-07-24T12:50:02;6;5;
60816;PMS5003;51921;51.518;-3.188;2023-07-24T12:52:28;4;4;
60816;PMS5003;51921;51.518;-3.188;2023-07-24T12:54:53;4;4;
60816;PMS5003;51921;51.518;-3.188;2023-07-24T12:57:18;5;5;
60816;PMS5003;51921;51.518;-3.188;2023-07-24T12:59:44;6;6;
60816;PMS5003;51921;51.518;-3.188;2023-07-24T13:02:09;5;5;
60816;PMS5003;51921;51.518;-3.188;2023-07-24T13:04:34;6;6;
60816;PMS5003;51921;51.518;-3.188;2023-07-24T13:07:00;4;4;
60816;PMS5003;51921;51.518;-3.188;2023-07-24T13:09:25;7;7;
60816;PMS5003;51921;51.518;-3.188;2023-07-24T13:11:51;6;6;
60816;PMS5003;51921;51.518;-3.188;2023-07-24T13:14:16;4;4;
60816;PMS5003;51921;51.518;-3.188;2023-07-24T13:16:42;6;6;
60816;PMS5003;51921;51.518;-3.188;2023-07-24T13:19:07;5;5;
60816;PMS5003;51921;51.518;-3.188;2023-07-24T13:21:32;6;6;
60816;PMS5003;51921;51.518;-3.188;2023-07-24T13:23:58;5;4;
60816;PMS5003;51921;51.518;-3.188;2023-07-24T13:26:23;8;7;
60816;PMS5003;51921;51.518;-3.188;2023-07-24T13:28:49;6;5;
60816;PMS5003;51921;51.518;-3.188;2023-07-24T13:31:15;6;6;
60816;PMS5003;51921;51.518;-3.188;2023-07-24T13:33:39;5;5;
60816;PMS5003;51921;51.518;-3.188;2023-07-24T13:36:05;5;5;
60816;PMS5003;51921;51.518;-3.188;2023-07-24T13:38:30;5;5;
60816;PMS5003;51921;51.518;-3.188;2023-07-24T13:40:55;5;5;
60816;PMS5003;51921;51.518;-3.188;2023-07-24T13:43:21;6;5;
60816;PMS5003;51921;51.518;-3.188;2023-07-24T13:45:46;6;5;
60816;PMS5003;51921;51.518;-3.188;2023-07-24T13:48:12;5;4;
60816;PMS5003;51921;51.518;-3.188;2023-07-24T13:50:37;5;4;
60816;PMS5003;51921;51.518;-3.188;2023-07-24T13:53:02;4;4;
60816;PMS5003;51921;51.518;-3.188;2023-07-24T13:55:28;4;4;
60816;PMS5003;51921;51.518;-3.188;2023-07-24T13:57:53;5;5;
60816;PMS5003;51921;51.518;-3.188;2023-07-24T14:00:19;4;4;
60816;PMS5003;51921;51.518;-3.188;2023-07-24T14:02:44;4;4;
60816;PMS5003;51921;51.518;-3.188;2023-07-24T14:05:09;4;4;
60816;PMS5003;51921;51.518;-3.188;2023-07-24T14:07:35;3;3;
60816;PMS5003;51921;51.518;-3.188;2023-07-24T14:10:01;6;5;
60816;PMS5003;51921;51.518;-3.188;2023-07-24T14:12:26;4;4;
60816;PMS5003;51921;51.518;-3.188;2023-07-24T14:14:52;6;5;
60816;PMS5003;51921;51.518;-3.188;2023-07-24T14:17:17;3;3;
60816;PMS5003;51921;51.518;-3.188;2023-07-24T14:19:42;4;4;
60816;PMS5003;51921;51.518;-3.188;2023-07-24T14:22:08;5;5;
60816;PMS5003;51921;51.518;-3.188;2023-07-24T14:24:33;4;4;
60816;PMS5003;51921;51.518;-3.188;2023-07-24T14:26:59;2;2;
60816;PMS5003;51921;51.518;-3.188;2023-07-24T14:29:24;4;4;
60816;PMS5003;51921;51.518;-3.188;2023-07-24T14:31:49;4;4;
60816;PMS5003;51921;51.518;-3.188;2023-07-24T14:34:15;3;3;
60816;PMS5003;51921;51.518;-3.188;2023-07-24T14:36:40;3;3;
60816;PMS5003;51921;51.518;-3.188;2023-07-24T14:39:06;3;3;
60816;PMS5003;51921;51.518;-3.188;2023-07-24T14:41:31;3;3;
60816;PMS5003;51921;51.518;-3.188;2023-07-24T14:43:56;3;3;
60816;PMS5003;51921;51.518;-3.188;2023-07-24T14:46:22;3;3;
60816;PMS5003;51921;51.518;-3.188;2023-07-24T14:48:47;3;3;
60816;PMS5003;51921;51.518;-3.188;2023-07-24T14:51:12;3;3;
60816;PMS5003;51921;51.518;-3.188;2023-07-24T14:53:37;2;2;
60816;PMS5003;51921;51.518;-3.188;2023-07-24T14:56:03;2;2;
60816;PMS5003;51921;51.518;-3.188;2023-07-24T14:58:28;2;2;
60816;PMS5003;51921;51.518;-3.188;2023-07-24T15:00:54;3;3;
60816;PMS5003;51921;51.518;-3.188;2023-07-24T15:03:19;3;3;
60816;PMS5003;51921;51.518;-3.188;2023-07-24T15:05:44;4;4;
60816;PMS5003;51921;51.518;-3.188;2023-07-24T15:08:10;3;3;
60816;PMS5003;51921;51.518;-3.188;2023-07-24T15:10:35;3;3;
60816;PMS5003;51921;51.518;-3.188;2023-07-24T15:13:00;4;4;
60816;PMS5003;51921;51.518;-3.188;2023-07-24T15:15:26;3;3;
60816;PMS5003;51921;51.518;-3.188;2023-07-24T15:17:51;2;2;
60816;PMS5003;51921;51.518;-3.188;2023-07-24T15:20:17;2;2;
60816;PMS5003;51921;51.518;-3.188;2023-07-24T15:22:42;3;2;
60816;PMS5003;51921;51.518;-3.188;2023-07-24T15:25:07;3;3;
60816;PMS5003;51921;51.518;-3.188;2023-07-24T15:27:33;3;3;
60816;PMS5003;51921;51.518;-3.188;2023-07-24T15:29:58;5;3;
60816;PMS5003;51921;51.518;-3.188;2023-07-24T15:32:23;3;3;
60816;PMS5003;51921;51.518;-3.188;2023-07-24T15:34:49;5;4;
60816;PMS5003;51921;51.518;-3.188;2023-07-24T15:37:14;2;2;
60816;PMS5003;51921;51.518;-3.188;2023-07-24T15:39:40;4;4;
60816;PMS5003;51921;51.518;-3.188;2023-07-24T15:42:05;4;3;
60816;PMS5003;51921;51.518;-3.188;2023-07-24T15:44:30;4;4;
60816;PMS5003;51921;51.518;-3.188;2023-07-24T15:46:56;3;3;
60816;PMS5003;51921;51.518;-3.188;2023-07-24T15:49:21;3;3;
60816;PMS5003;51921;51.518;-3.188;2023-07-24T15:51:46;3;3;
60816;PMS5003;51921;51.518;-3.188;2023-07-24T15:54:12;4;4;
60816;PMS5003;51921;51.518;-3.188;2023-07-24T15:56:37;3;3;
60816;PMS5003;51921;51.518;-3.188;2023-07-24T15:59:03;2;2;
60816;PMS5003;51921;51.518;-3.188;2023-07-24T16:01:28;4;4;
60816;PMS5003;51921;51.518;-3.188;2023-07-24T16:03:53;2;2;
60816;PMS5003;51921;51.518;-3.188;2023-07-24T16:06:19;2;2;
60816;PMS5003;51921;51.518;-3.188;2023-07-24T16:08:44;2;2;
60816;PMS5003;51921;51.518;-3.188;2023-07-24T16:11:09;3;2;
60816;PMS5003;51921;51.518;-3.188;2023-07-24T16:13:35;2;2;
60816;PMS5003;51921;51.518;-3.188;2023-07-24T16:16:00;4;4;
60816;PMS5003;51921;51.518;-3.188;2023-07-24T16:18:26;2;2;
60816;PMS5003;51921;51.518;-3.188;2023-07-24T16:20:51;4;3;
60816;PMS5003;51921;51.518;-3.188;2023-07-24T16:23:16;3;3;
60816;PMS5003;51921;51.518;-3.188;2023-07-24T16:25:41;3;3;
60816;PMS5003;51921;51.518;-3.188;2023-07-24T16:28:07;3;2;
60816;PMS5003;51921;51.518;-3.188;2023-07-24T16:30:32;3;3;
60816;PMS5003;51921;51.518;-3.188;2023-07-24T16:32:58;4;4;